Chorlton cum Hardy, United Kingdom
Current Conditions -  °F | °C
As of 3:20 AM on Saturday 29 Nov 2014 (Local Time) from EGCC Reporting Station
Clear Clear  
Wind Chill:   Ceiling: Unl
Heat Index:   Visibility: 6mi
Dew Point:   Wind: 6mph
Humidity: 100%   Direction: 90°E
Pressure: 29.77"   Gusts: NA
Location:  53.44°N, 2.26°W
Report Text: EGCC 290320Z 09005KT 9999 NSC 09/09 Q1008 NOSIG
Loading
Personal Weather Stations






























Interactive Weather Map New forecast layout! Learn more

10-Day Weather Forecast

Advertisements
Track Severe Weather on mobile